sensor_id;sensor_type;location;lat;lon;timestamp;P1;durP1;ratioP1;P2;durP2;ratioP2
67174;SDS011;54110;45.778;4.826;2022-09-20T00:02:01;5.78;;;1.95;;
67174;SDS011;54110;45.778;4.826;2022-09-20T00:04:27;6.95;;;1.50;;
67174;SDS011;54110;45.778;4.826;2022-09-20T00:06:53;9.85;;;1.70;;
67174;SDS011;54110;45.778;4.826;2022-09-20T00:09:19;6.63;;;1.60;;
67174;SDS011;54110;45.778;4.826;2022-09-20T00:11:44;7.38;;;1.70;;
67174;SDS011;54110;45.778;4.826;2022-09-20T00:14:10;6.72;;;1.83;;
67174;SDS011;54110;45.778;4.826;2022-09-20T00:16:36;5.43;;;1.50;;
67174;SDS011;54110;45.778;4.826;2022-09-20T00:19:05;7.25;;;1.08;;
67174;SDS011;54110;45.778;4.826;2022-09-20T00:21:32;7.07;;;1.67;;
67174;SDS011;54110;45.778;4.826;2022-09-20T00:23:59;10.10;;;1.67;;
67174;SDS011;54110;45.778;4.826;2022-09-20T00:26:25;8.55;;;1.65;;
67174;SDS011;54110;45.778;4.826;2022-09-20T00:28:51;3.15;;;1.10;;
67174;SDS011;54110;45.778;4.826;2022-09-20T00:31:17;13.57;;;2.13;;
67174;SDS011;54110;45.778;4.826;2022-09-20T00:33:43;6.53;;;1.27;;
67174;SDS011;54110;45.778;4.826;2022-09-20T00:36:10;4.18;;;1.42;;
67174;SDS011;54110;45.778;4.826;2022-09-20T00:38:36;18.33;;;2.25;;
67174;SDS011;54110;45.778;4.826;2022-09-20T00:41:02;6.78;;;1.38;;
67174;SDS011;54110;45.778;4.826;2022-09-20T00:43:35;9.15;;;1.58;;
67174;SDS011;54110;45.778;4.826;2022-09-20T00:46:02;4.72;;;1.38;;
67174;SDS011;54110;45.778;4.826;2022-09-20T00:48:28;7.68;;;1.48;;
67174;SDS011;54110;45.778;4.826;2022-09-20T00:50:58;4.22;;;1.60;;
67174;SDS011;54110;45.778;4.826;2022-09-20T00:53:27;6.32;;;1.65;;
67174;SDS011;54110;45.778;4.826;2022-09-20T00:55:56;5.30;;;1.67;;
67174;SDS011;54110;45.778;4.826;2022-09-20T00:58:27;4.75;;;1.30;;
67174;SDS011;54110;45.778;4.826;2022-09-20T01:00:55;3.30;;;1.27;;
67174;SDS011;54110;45.778;4.826;2022-09-20T01:03:23;8.75;;;1.65;;
67174;SDS011;54110;45.778;4.826;2022-09-20T01:05:52;10.00;;;2.00;;
67174;SDS011;54110;45.778;4.826;2022-09-20T01:08:19;5.45;;;1.33;;
67174;SDS011;54110;45.778;4.826;2022-09-20T01:10:47;4.95;;;1.55;;
67174;SDS011;54110;45.778;4.826;2022-09-20T01:13:13;8.75;;;1.30;;
67174;SDS011;54110;45.778;4.826;2022-09-20T01:15:38;5.28;;;1.38;;
67174;SDS011;54110;45.778;4.826;2022-09-20T01:18:06;4.32;;;1.33;;
67174;SDS011;54110;45.778;4.826;2022-09-20T01:20:34;4.47;;;1.35;;
67174;SDS011;54110;45.778;4.826;2022-09-20T01:26:06;4.38;;;1.15;;
67174;SDS011;54110;45.778;4.826;2022-09-20T01:28:58;7.15;;;1.35;;
67174;SDS011;54110;45.778;4.826;2022-09-20T01:31:32;3.78;;;1.10;;
67174;SDS011;54110;45.778;4.826;2022-09-20T01:34:01;5.45;;;1.20;;
67174;SDS011;54110;45.778;4.826;2022-09-20T01:36:32;8.05;;;1.30;;
67174;SDS011;54110;45.778;4.826;2022-09-20T01:39:04;6.55;;;1.33;;
67174;SDS011;54110;45.778;4.826;2022-09-20T01:41:35;7.45;;;1.40;;
67174;SDS011;54110;45.778;4.826;2022-09-20T01:44:10;6.07;;;1.63;;
67174;SDS011;54110;45.778;4.826;2022-09-20T01:46:42;9.98;;;1.33;;
67174;SDS011;54110;45.778;4.826;2022-09-20T01:49:15;5.88;;;1.85;;
67174;SDS011;54110;45.778;4.826;2022-09-20T01:55:06;10.35;;;1.48;;
67174;SDS011;54110;45.778;4.826;2022-09-20T02:01:03;5.28;;;1.23;;
67174;SDS011;54110;45.778;4.826;2022-09-20T02:03:57;5.15;;;1.35;;
67174;SDS011;54110;45.778;4.826;2022-09-20T02:06:43;5.60;;;1.77;;
67174;SDS011;54110;45.778;4.826;2022-09-20T02:09:30;4.05;;;1.00;;
67174;SDS011;54110;45.778;4.826;2022-09-20T02:12:14;4.88;;;1.33;;
67174;SDS011;54110;45.778;4.826;2022-09-20T02:14:55;4.45;;;1.23;;
67174;SDS011;54110;45.778;4.826;2022-09-20T02:17:30;3.33;;;1.10;;
67174;SDS011;54110;45.778;4.826;2022-09-20T02:20:07;5.15;;;1.00;;
67174;SDS011;54110;45.778;4.826;2022-09-20T02:23:00;2.78;;;1.00;;
67174;SDS011;54110;45.778;4.826;2022-09-20T02:25:49;3.47;;;1.25;;
67174;SDS011;54110;45.778;4.826;2022-09-20T02:28:28;6.15;;;1.50;;
67174;SDS011;54110;45.778;4.826;2022-09-20T02:31:09;4.32;;;0.93;;
67174;SDS011;54110;45.778;4.826;2022-09-20T02:33:50;2.85;;;1.17;;
67174;SDS011;54110;45.778;4.826;2022-09-20T02:36:33;3.10;;;1.33;;
67174;SDS011;54110;45.778;4.826;2022-09-20T02:39:06;3.63;;;1.02;;
67174;SDS011;54110;45.778;4.826;2022-09-20T02:41:51;5.38;;;1.35;;
67174;SDS011;54110;45.778;4.826;2022-09-20T02:44:23;4.28;;;1.10;;
67174;SDS011;54110;45.778;4.826;2022-09-20T02:47:04;4.63;;;1.27;;
67174;SDS011;54110;45.778;4.826;2022-09-20T02:49:38;3.55;;;1.15;;
67174;SDS011;54110;45.778;4.826;2022-09-20T02:52:16;2.42;;;1.02;;
67174;SDS011;54110;45.778;4.826;2022-09-20T02:54:50;6.22;;;1.35;;
67174;SDS011;54110;45.778;4.826;2022-09-20T02:57:24;6.82;;;1.50;;
67174;SDS011;54110;45.778;4.826;2022-09-20T03:00:07;3.38;;;0.95;;
67174;SDS011;54110;45.778;4.826;2022-09-20T03:02:39;6.32;;;1.15;;
67174;SDS011;54110;45.778;4.826;2022-09-20T03:05:15;6.25;;;1.55;;
67174;SDS011;54110;45.778;4.826;2022-09-20T03:07:50;3.97;;;1.20;;
67174;SDS011;54110;45.778;4.826;2022-09-20T03:10:27;13.65;;;1.40;;
67174;SDS011;54110;45.778;4.826;2022-09-20T03:13:07;4.22;;;1.20;;
67174;SDS011;54110;45.778;4.826;2022-09-20T03:15:40;10.20;;;1.67;;
67174;SDS011;54110;45.778;4.826;2022-09-20T03:18:16;5.15;;;1.45;;
67174;SDS011;54110;45.778;4.826;2022-09-20T03:20:53;4.78;;;0.90;;
67174;SDS011;54110;45.778;4.826;2022-09-20T03:23:34;4.05;;;0.90;;
67174;SDS011;54110;45.778;4.826;2022-09-20T03:26:12;4.55;;;1.48;;
67174;SDS011;54110;45.778;4.826;2022-09-20T03:28:51;4.32;;;1.05;;
67174;SDS011;54110;45.778;4.826;2022-09-20T03:31:23;3.83;;;0.80;;
67174;SDS011;54110;45.778;4.826;2022-09-20T03:34:01;3.20;;;1.10;;
67174;SDS011;54110;45.778;4.826;2022-09-20T03:36:39;11.25;;;1.40;;
67174;SDS011;54110;45.778;4.826;2022-09-20T03:39:22;3.80;;;1.00;;
67174;SDS011;54110;45.778;4.826;2022-09-20T03:42:12;2.17;;;1.02;;
67174;SDS011;54110;45.778;4.826;2022-09-20T03:44:47;4.70;;;1.35;;
67174;SDS011;54110;45.778;4.826;2022-09-20T03:47:58;5.13;;;1.30;;
67174;SDS011;54110;45.778;4.826;2022-09-20T03:50:50;38.45;;;2.35;;
67174;SDS011;54110;45.778;4.826;2022-09-20T03:53:33;9.93;;;1.52;;
67174;SDS011;54110;45.778;4.826;2022-09-20T03:56:19;4.43;;;1.38;;
67174;SDS011;54110;45.778;4.826;2022-09-20T03:59:07;6.40;;;1.50;;
67174;SDS011;54110;45.778;4.826;2022-09-20T04:01:53;9.63;;;1.35;;
67174;SDS011;54110;45.778;4.826;2022-09-20T04:04:47;14.35;;;1.83;;
67174;SDS011;54110;45.778;4.826;2022-09-20T04:07:18;6.35;;;1.27;;
67174;SDS011;54110;45.778;4.826;2022-09-20T04:09:58;9.80;;;1.30;;
67174;SDS011;54110;45.778;4.826;2022-09-20T04:12:39;10.55;;;1.50;;
67174;SDS011;54110;45.778;4.826;2022-09-20T04:15:16;6.70;;;1.20;;
67174;SDS011;54110;45.778;4.826;2022-09-20T04:17:52;13.32;;;1.45;;
67174;SDS011;54110;45.778;4.826;2022-09-20T04:20:23;13.93;;;1.20;;
67174;SDS011;54110;45.778;4.826;2022-09-20T04:22:55;8.45;;;1.15;;
67174;SDS011;54110;45.778;4.826;2022-09-20T04:25:28;11.35;;;1.42;;
67174;SDS011;54110;45.778;4.826;2022-09-20T04:28:03;3.88;;;1.42;;
67174;SDS011;54110;45.778;4.826;2022-09-20T04:30:35;5.78;;;1.02;;
67174;SDS011;54110;45.778;4.826;2022-09-20T04:33:04;5.18;;;1.10;;
67174;SDS011;54110;45.778;4.826;2022-09-20T04:35:39;6.25;;;1.10;;
67174;SDS011;54110;45.778;4.826;2022-09-20T04:38:13;6.35;;;1.30;;
67174;SDS011;54110;45.778;4.826;2022-09-20T04:40:50;5.35;;;1.20;;
67174;SDS011;54110;45.778;4.826;2022-09-20T04:43:42;4.33;;;0.93;;
67174;SDS011;54110;45.778;4.826;2022-09-20T05:01:37;3.92;;;1.02;;
67174;SDS011;54110;45.778;4.826;2022-09-20T05:07:40;6.75;;;1.02;;
67174;SDS011;54110;45.778;4.826;2022-09-20T05:10:37;6.40;;;1.33;;
67174;SDS011;54110;45.778;4.826;2022-09-20T05:13:30;9.05;;;1.73;;
67174;SDS011;54110;45.778;4.826;2022-09-20T05:16:04;8.27;;;1.90;;
67174;SDS011;54110;45.778;4.826;2022-09-20T05:18:49;8.70;;;1.58;;
67174;SDS011;54110;45.778;4.826;2022-09-20T05:24:53;9.23;;;1.40;;
67174;SDS011;54110;45.778;4.826;2022-09-20T05:27:34;12.02;;;2.05;;
67174;SDS011;54110;45.778;4.826;2022-09-20T05:30:10;9.25;;;1.67;;
67174;SDS011;54110;45.778;4.826;2022-09-20T05:32:42;3.67;;;1.45;;
67174;SDS011;54110;45.778;4.826;2022-09-20T05:35:14;9.23;;;1.83;;
67174;SDS011;54110;45.778;4.826;2022-09-20T05:37:46;6.72;;;1.52;;
67174;SDS011;54110;45.778;4.826;2022-09-20T05:40:22;12.23;;;1.48;;
67174;SDS011;54110;45.778;4.826;2022-09-20T05:42:55;24.77;;;2.30;;
67174;SDS011;54110;45.778;4.826;2022-09-20T05:45:38;8.88;;;1.83;;
67174;SDS011;54110;45.778;4.826;2022-09-20T05:48:12;7.57;;;1.58;;
67174;SDS011;54110;45.778;4.826;2022-09-20T05:50:43;14.25;;;2.53;;
67174;SDS011;54110;45.778;4.826;2022-09-20T05:56:32;11.40;;;1.67;;
67174;SDS011;54110;45.778;4.826;2022-09-20T05:59:10;12.02;;;2.17;;
67174;SDS011;54110;45.778;4.826;2022-09-20T06:02:08;15.57;;;2.00;;
67174;SDS011;54110;45.778;4.826;2022-09-20T06:04:42;12.80;;;1.90;;
67174;SDS011;54110;45.778;4.826;2022-09-20T06:07:16;15.45;;;2.38;;
67174;SDS011;54110;45.778;4.826;2022-09-20T06:10:04;21.37;;;2.47;;
67174;SDS011;54110;45.778;4.826;2022-09-20T06:12:51;11.98;;;2.15;;
67174;SDS011;54110;45.778;4.826;2022-09-20T06:15:24;13.68;;;1.85;;
67174;SDS011;54110;45.778;4.826;2022-09-20T06:17:58;23.15;;;2.40;;
67174;SDS011;54110;45.778;4.826;2022-09-20T06:20:32;14.90;;;2.75;;
67174;SDS011;54110;45.778;4.826;2022-09-20T06:23:07;8.30;;;1.88;;
67174;SDS011;54110;45.778;4.826;2022-09-20T06:25:37;5.68;;;1.40;;
67174;SDS011;54110;45.778;4.826;2022-09-20T06:28:07;8.40;;;1.52;;
67174;SDS011;54110;45.778;4.826;2022-09-20T06:30:38;8.00;;;1.83;;
67174;SDS011;54110;45.778;4.826;2022-09-20T06:33:12;10.95;;;1.50;;
67174;SDS011;54110;45.778;4.826;2022-09-20T06:35:40;18.05;;;2.17;;
67174;SDS011;54110;45.778;4.826;2022-09-20T06:38:26;12.50;;;2.00;;
67174;SDS011;54110;45.778;4.826;2022-09-20T06:41:06;11.90;;;1.73;;
67174;SDS011;54110;45.778;4.826;2022-09-20T06:43:34;8.55;;;1.80;;
67174;SDS011;54110;45.778;4.826;2022-09-20T06:46:00;8.02;;;1.60;;
67174;SDS011;54110;45.778;4.826;2022-09-20T06:48:27;8.02;;;1.40;;
67174;SDS011;54110;45.778;4.826;2022-09-20T06:50:53;7.05;;;1.70;;
67174;SDS011;54110;45.778;4.826;2022-09-20T06:53:22;9.02;;;1.30;;
67174;SDS011;54110;45.778;4.826;2022-09-20T06:55:51;6.72;;;1.92;;
67174;SDS011;54110;45.778;4.826;2022-09-20T06:58:16;8.80;;;1.48;;
67174;SDS011;54110;45.778;4.826;2022-09-20T07:00:42;7.03;;;1.65;;
67174;SDS011;54110;45.778;4.826;2022-09-20T07:03:08;5.63;;;1.60;;
67174;SDS011;54110;45.778;4.826;2022-09-20T07:05:35;5.20;;;1.63;;
67174;SDS011;54110;45.778;4.826;2022-09-20T07:08:01;2.58;;;1.20;;
67174;SDS011;54110;45.778;4.826;2022-09-20T07:10:27;6.85;;;1.23;;
67174;SDS011;54110;45.778;4.826;2022-09-20T07:12:54;7.70;;;1.52;;
67174;SDS011;54110;45.778;4.826;2022-09-20T07:15:20;4.88;;;1.33;;
67174;SDS011;54110;45.778;4.826;2022-09-20T07:17:46;4.63;;;1.30;;
67174;SDS011;54110;45.778;4.826;2022-09-20T07:20:11;7.40;;;1.40;;
67174;SDS011;54110;45.778;4.826;2022-09-20T07:22:39;5.05;;;1.30;;
67174;SDS011;54110;45.778;4.826;2022-09-20T07:25:05;3.45;;;1.27;;
67174;SDS011;54110;45.778;4.826;2022-09-20T07:27:31;5.00;;;1.38;;
67174;SDS011;54110;45.778;4.826;2022-09-20T07:29:57;10.10;;;1.73;;
67174;SDS011;54110;45.778;4.826;2022-09-20T07:32:23;8.35;;;1.70;;
67174;SDS011;54110;45.778;4.826;2022-09-20T07:34:48;4.05;;;1.25;;
67174;SDS011;54110;45.778;4.826;2022-09-20T07:37:15;5.00;;;1.10;;
67174;SDS011;54110;45.778;4.826;2022-09-20T07:39:42;3.50;;;1.55;;
67174;SDS011;54110;45.778;4.826;2022-09-20T07:42:09;5.85;;;1.38;;
67174;SDS011;54110;45.778;4.826;2022-09-20T07:44:34;5.32;;;1.50;;
67174;SDS011;54110;45.778;4.826;2022-09-20T07:47:00;13.85;;;1.48;;
67174;SDS011;54110;45.778;4.826;2022-09-20T07:49:26;4.20;;;1.35;;
67174;SDS011;54110;45.778;4.826;2022-09-20T07:51:53;4.35;;;1.40;;
67174;SDS011;54110;45.778;4.826;2022-09-20T07:54:18;4.57;;;1.30;;
67174;SDS011;54110;45.778;4.826;2022-09-20T07:56:46;3.75;;;1.20;;
67174;SDS011;54110;45.778;4.826;2022-09-20T07:59:12;3.85;;;1.10;;
67174;SDS011;54110;45.778;4.826;2022-09-20T08:01:38;3.72;;;1.10;;
67174;SDS011;54110;45.778;4.826;2022-09-20T08:04:05;4.72;;;1.02;;
67174;SDS011;54110;45.778;4.826;2022-09-20T08:06:31;5.93;;;1.65;;
67174;SDS011;54110;45.778;4.826;2022-09-20T08:08:56;3.00;;;1.13;;
67174;SDS011;54110;45.778;4.826;2022-09-20T08:11:23;4.97;;;1.63;;
67174;SDS011;54110;45.778;4.826;2022-09-20T08:13:51;7.30;;;1.20;;
67174;SDS011;54110;45.778;4.826;2022-09-20T08:16:18;3.58;;;1.38;;
67174;SDS011;54110;45.778;4.826;2022-09-20T08:18:44;3.20;;;1.30;;
67174;SDS011;54110;45.778;4.826;2022-09-20T08:21:11;3.08;;;1.00;;
67174;SDS011;54110;45.778;4.826;2022-09-20T08:23:38;2.30;;;0.90;;
67174;SDS011;54110;45.778;4.826;2022-09-20T08:26:06;3.50;;;0.98;;
67174;SDS011;54110;45.778;4.826;2022-09-20T08:28:33;4.18;;;1.02;;
67174;SDS011;54110;45.778;4.826;2022-09-20T08:31:03;5.00;;;1.50;;
67174;SDS011;54110;45.778;4.826;2022-09-20T08:33:31;3.47;;;1.10;;
67174;SDS011;54110;45.778;4.826;2022-09-20T08:35:57;5.28;;;1.20;;
67174;SDS011;54110;45.778;4.826;2022-09-20T08:38:22;3.67;;;1.02;;
67174;SDS011;54110;45.778;4.826;2022-09-20T08:40:48;50.97;;;4.47;;
67174;SDS011;54110;45.778;4.826;2022-09-20T08:43:14;31.25;;;2.47;;
67174;SDS011;54110;45.778;4.826;2022-09-20T08:45:40;16.90;;;2.38;;
67174;SDS011;54110;45.778;4.826;2022-09-20T08:48:09;17.52;;;2.08;;
67174;SDS011;54110;45.778;4.826;2022-09-20T08:50:40;6.50;;;1.70;;
67174;SDS011;54110;45.778;4.826;2022-09-20T08:53:06;12.82;;;1.65;;
67174;SDS011;54110;45.778;4.826;2022-09-20T08:55:38;6.60;;;1.13;;
67174;SDS011;54110;45.778;4.826;2022-09-20T08:58:04;4.20;;;1.38;;
67174;SDS011;54110;45.778;4.826;2022-09-20T09:00:34;7.38;;;1.20;;
67174;SDS011;54110;45.778;4.826;2022-09-20T09:03:03;7.63;;;1.45;;
67174;SDS011;54110;45.778;4.826;2022-09-20T09:05:33;12.20;;;2.53;;
67174;SDS011;54110;45.778;4.826;2022-09-20T09:08:02;14.77;;;2.15;;
67174;SDS011;54110;45.778;4.826;2022-09-20T09:10:33;10.75;;;1.88;;
67174;SDS011;54110;45.778;4.826;2022-09-20T09:13:01;6.43;;;1.55;;
67174;SDS011;54110;45.778;4.826;2022-09-20T09:15:29;6.65;;;1.50;;
67174;SDS011;54110;45.778;4.826;2022-09-20T09:17:57;16.33;;;2.58;;
67174;SDS011;54110;45.778;4.826;2022-09-20T09:20:23;10.50;;;2.35;;
67174;SDS011;54110;45.778;4.826;2022-09-20T09:22:58;10.50;;;1.77;;
67174;SDS011;54110;45.778;4.826;2022-09-20T09:25:25;6.15;;;1.63;;
67174;SDS011;54110;45.778;4.826;2022-09-20T09:27:52;5.53;;;1.42;;
67174;SDS011;54110;45.778;4.826;2022-09-20T09:30:21;4.28;;;1.38;;
67174;SDS011;54110;45.778;4.826;2022-09-20T09:32:49;8.60;;;2.10;;
67174;SDS011;54110;45.778;4.826;2022-09-20T09:35:22;8.00;;;1.48;;
67174;SDS011;54110;45.778;4.826;2022-09-20T09:37:54;6.55;;;1.65;;
67174;SDS011;54110;45.778;4.826;2022-09-20T09:40:22;10.88;;;1.67;;
67174;SDS011;54110;45.778;4.826;2022-09-20T09:42:49;5.47;;;1.38;;
67174;SDS011;54110;45.778;4.826;2022-09-20T09:45:26;10.13;;;1.63;;
67174;SDS011;54110;45.778;4.826;2022-09-20T09:47:56;9.73;;;1.58;;
67174;SDS011;54110;45.778;4.826;2022-09-20T09:50:24;4.10;;;1.20;;
67174;SDS011;54110;45.778;4.826;2022-09-20T09:52:55;9.38;;;1.40;;
67174;SDS011;54110;45.778;4.826;2022-09-20T09:55:24;5.93;;;1.40;;
67174;SDS011;54110;45.778;4.826;2022-09-20T09:57:55;3.00;;;1.02;;
67174;SDS011;54110;45.778;4.826;2022-09-20T10:00:29;5.25;;;1.17;;
67174;SDS011;54110;45.778;4.826;2022-09-20T10:06:02;5.65;;;1.20;;
67174;SDS011;54110;45.778;4.826;2022-09-20T10:11:19;4.60;;;1.20;;
67174;SDS011;54110;45.778;4.826;2022-09-20T10:13:55;3.33;;;1.55;;
67174;SDS011;54110;45.778;4.826;2022-09-20T10:16:32;3.25;;;1.17;;
67174;SDS011;54110;45.778;4.826;2022-09-20T10:19:17;4.43;;;1.20;;
67174;SDS011;54110;45.778;4.826;2022-09-20T10:24:26;4.63;;;1.20;;
67174;SDS011;54110;45.778;4.826;2022-09-20T10:30:00;2.72;;;1.00;;
67174;SDS011;54110;45.778;4.826;2022-09-20T10:32:35;3.67;;;1.40;;
67174;SDS011;54110;45.778;4.826;2022-09-20T10:35:28;6.97;;;1.30;;
67174;SDS011;54110;45.778;4.826;2022-09-20T10:38:10;4.25;;;1.45;;
67174;SDS011;54110;45.778;4.826;2022-09-20T10:40:41;2.15;;;0.98;;
67174;SDS011;54110;45.778;4.826;2022-09-20T10:43:26;2.75;;;1.10;;
67174;SDS011;54110;45.778;4.826;2022-09-20T10:46:07;3.85;;;1.10;;
67174;SDS011;54110;45.778;4.826;2022-09-20T10:48:40;2.75;;;0.93;;
67174;SDS011;54110;45.778;4.826;2022-09-20T10:51:10;2.42;;;1.10;;
67174;SDS011;54110;45.778;4.826;2022-09-20T10:53:47;5.93;;;1.27;;
67174;SDS011;54110;45.778;4.826;2022-09-20T10:56:25;2.85;;;1.02;;
67174;SDS011;54110;45.778;4.826;2022-09-20T11:01:51;3.15;;;1.00;;
67174;SDS011;54110;45.778;4.826;2022-09-20T11:04:40;3.15;;;1.00;;
67174;SDS011;54110;45.778;4.826;2022-09-20T11:07:36;2.55;;;1.00;;
67174;SDS011;54110;45.778;4.826;2022-09-20T11:10:13;3.05;;;0.95;;
67174;SDS011;54110;45.778;4.826;2022-09-20T11:12:46;3.70;;;1.17;;
67174;SDS011;54110;45.778;4.826;2022-09-20T11:15:16;2.28;;;1.10;;
67174;SDS011;54110;45.778;4.826;2022-09-20T11:17:50;1.85;;;0.73;;
67174;SDS011;54110;45.778;4.826;2022-09-20T11:20:23;3.70;;;1.33;;
67174;SDS011;54110;45.778;4.826;2022-09-20T11:22:54;2.05;;;1.05;;
67174;SDS011;54110;45.778;4.826;2022-09-20T11:25:25;5.85;;;1.00;;
67174;SDS011;54110;45.778;4.826;2022-09-20T11:28:00;2.92;;;1.20;;
67174;SDS011;54110;45.778;4.826;2022-09-20T11:30:32;2.63;;;1.08;;
67174;SDS011;54110;45.778;4.826;2022-09-20T11:33:05;3.55;;;0.90;;
67174;SDS011;54110;45.778;4.826;2022-09-20T11:35:38;1.40;;;0.68;;
67174;SDS011;54110;45.778;4.826;2022-09-20T11:38:11;2.75;;;0.98;;
67174;SDS011;54110;45.778;4.826;2022-09-20T11:40:41;2.88;;;1.13;;
67174;SDS011;54110;45.778;4.826;2022-09-20T11:43:12;4.22;;;1.02;;
67174;SDS011;54110;45.778;4.826;2022-09-20T11:45:39;1.90;;;0.93;;
67174;SDS011;54110;45.778;4.826;2022-09-20T11:48:09;3.60;;;1.00;;
67174;SDS011;54110;45.778;4.826;2022-09-20T11:53:39;2.72;;;0.82;;
67174;SDS011;54110;45.778;4.826;2022-09-20T11:56:19;1.38;;;0.80;;
67174;SDS011;54110;45.778;4.826;2022-09-20T11:58:48;2.38;;;0.90;;
67174;SDS011;54110;45.778;4.826;2022-09-20T12:01:20;1.85;;;1.00;;
67174;SDS011;54110;45.778;4.826;2022-09-20T12:03:51;2.60;;;0.90;;
67174;SDS011;54110;45.778;4.826;2022-09-20T12:06:22;3.38;;;0.70;;
67174;SDS011;54110;45.778;4.826;2022-09-20T12:08:50;3.13;;;0.95;;
67174;SDS011;54110;45.778;4.826;2022-09-20T12:11:24;1.95;;;1.00;;
67174;SDS011;54110;45.778;4.826;2022-09-20T12:13:57;3.17;;;1.05;;
67174;SDS011;54110;45.778;4.826;2022-09-20T12:16:37;2.55;;;1.10;;
67174;SDS011;54110;45.778;4.826;2022-09-20T12:19:05;2.03;;;0.82;;
67174;SDS011;54110;45.778;4.826;2022-09-20T12:21:47;2.28;;;0.85;;
67174;SDS011;54110;45.778;4.826;2022-09-20T12:27:56;2.03;;;0.90;;
67174;SDS011;54110;45.778;4.826;2022-09-20T12:30:23;2.97;;;1.10;;
67174;SDS011;54110;45.778;4.826;2022-09-20T12:32:50;3.25;;;0.88;;
67174;SDS011;54110;45.778;4.826;2022-09-20T12:38:21;1.75;;;0.85;;
67174;SDS011;54110;45.778;4.826;2022-09-20T12:40:58;2.78;;;0.85;;
67174;SDS011;54110;45.778;4.826;2022-09-20T12:43:26;1.60;;;0.70;;
67174;SDS011;54110;45.778;4.826;2022-09-20T12:45:55;3.33;;;0.80;;
67174;SDS011;54110;45.778;4.826;2022-09-20T12:48:22;2.75;;;0.80;;
67174;SDS011;54110;45.778;4.826;2022-09-20T12:50:59;2.33;;;1.00;;
67174;SDS011;54110;45.778;4.826;2022-09-20T12:53:26;1.92;;;0.90;;
67174;SDS011;54110;45.778;4.826;2022-09-20T12:55:52;1.98;;;1.00;;
67174;SDS011;54110;45.778;4.826;2022-09-20T12:58:32;3.15;;;1.20;;
67174;SDS011;54110;45.778;4.826;2022-09-20T13:04:01;1.70;;;0.80;;
67174;SDS011;54110;45.778;4.826;2022-09-20T13:10:03;0.88;;;0.70;;
67174;SDS011;54110;45.778;4.826;2022-09-20T13:12:38;2.47;;;0.95;;
67174;SDS011;54110;45.778;4.826;2022-09-20T13:15:06;3.13;;;0.82;;
67174;SDS011;54110;45.778;4.826;2022-09-20T13:17:39;1.00;;;0.70;;
67174;SDS011;54110;45.778;4.826;2022-09-20T13:20:13;2.45;;;0.90;;
67174;SDS011;54110;45.778;4.826;2022-09-20T13:22:41;2.50;;;0.93;;
67174;SDS011;54110;45.778;4.826;2022-09-20T13:25:09;1.58;;;0.82;;
67174;SDS011;54110;45.778;4.826;2022-09-20T13:27:39;2.65;;;0.90;;
67174;SDS011;54110;45.778;4.826;2022-09-20T13:30:07;2.67;;;1.13;;
67174;SDS011;54110;45.778;4.826;2022-09-20T13:32:40;2.92;;;0.85;;
67174;SDS011;54110;45.778;4.826;2022-09-20T13:35:06;2.88;;;0.98;;
67174;SDS011;54110;45.778;4.826;2022-09-20T13:37:37;1.55;;;0.80;;
67174;SDS011;54110;45.778;4.826;2022-09-20T13:40:15;3.30;;;1.10;;
67174;SDS011;54110;45.778;4.826;2022-09-20T13:42:42;1.60;;;0.80;;
67174;SDS011;54110;45.778;4.826;2022-09-20T13:45:10;1.80;;;0.73;;
67174;SDS011;54110;45.778;4.826;2022-09-20T13:47:41;2.22;;;0.90;;
67174;SDS011;54110;45.778;4.826;2022-09-20T13:50:11;2.20;;;0.80;;
67174;SDS011;54110;45.778;4.826;2022-09-20T13:52:43;2.22;;;0.80;;
67174;SDS011;54110;45.778;4.826;2022-09-20T13:55:20;2.22;;;0.80;;
67174;SDS011;54110;45.778;4.826;2022-09-20T13:57:50;1.92;;;0.80;;
67174;SDS011;54110;45.778;4.826;2022-09-20T14:00:17;1.52;;;0.60;;
67174;SDS011;54110;45.778;4.826;2022-09-20T14:02:44;2.75;;;1.00;;
67174;SDS011;54110;45.778;4.826;2022-09-20T14:05:13;2.35;;;0.88;;
67174;SDS011;54110;45.778;4.826;2022-09-20T14:07:42;2.20;;;0.80;;
67174;SDS011;54110;45.778;4.826;2022-09-20T14:12:50;2.90;;;0.88;;
67174;SDS011;54110;45.778;4.826;2022-09-20T14:15:17;1.25;;;0.75;;
67174;SDS011;54110;45.778;4.826;2022-09-20T14:17:45;2.00;;;0.80;;
67174;SDS011;54110;45.778;4.826;2022-09-20T14:20:12;4.35;;;1.00;;
67174;SDS011;54110;45.778;4.826;2022-09-20T14:22:39;2.63;;;0.75;;
67174;SDS011;54110;45.778;4.826;2022-09-20T14:25:17;1.90;;;1.10;;
67174;SDS011;54110;45.778;4.826;2022-09-20T14:27:44;2.03;;;0.75;;
67174;SDS011;54110;45.778;4.826;2022-09-20T14:32:54;1.70;;;0.90;;
67174;SDS011;54110;45.778;4.826;2022-09-20T14:35:21;1.80;;;1.02;;
67174;SDS011;54110;45.778;4.826;2022-09-20T14:37:47;2.78;;;0.85;;
67174;SDS011;54110;45.778;4.826;2022-09-20T14:40:15;1.25;;;0.65;;
67174;SDS011;54110;45.778;4.826;2022-09-20T14:42:50;1.83;;;0.80;;
67174;SDS011;54110;45.778;4.826;2022-09-20T14:45:20;2.35;;;0.93;;
67174;SDS011;54110;45.778;4.826;2022-09-20T14:47:52;2.15;;;1.13;;
67174;SDS011;54110;45.778;4.826;2022-09-20T14:50:23;2.83;;;0.80;;
67174;SDS011;54110;45.778;4.826;2022-09-20T14:52:58;2.17;;;0.80;;
67174;SDS011;54110;45.778;4.826;2022-09-20T14:55:39;1.85;;;0.80;;
67174;SDS011;54110;45.778;4.826;2022-09-20T14:58:18;1.48;;;0.77;;
67174;SDS011;54110;45.778;4.826;2022-09-20T15:00:48;1.88;;;0.90;;
67174;SDS011;54110;45.778;4.826;2022-09-20T15:03:18;2.33;;;1.08;;
67174;SDS011;54110;45.778;4.826;2022-09-20T15:05:50;3.50;;;0.93;;
67174;SDS011;54110;45.778;4.826;2022-09-20T15:08:16;1.63;;;0.77;;
67174;SDS011;54110;45.778;4.826;2022-09-20T15:10:42;3.30;;;0.95;;
67174;SDS011;54110;45.778;4.826;2022-09-20T15:13:07;2.03;;;0.75;;
67174;SDS011;54110;45.778;4.826;2022-09-20T15:15:34;3.25;;;1.05;;
67174;SDS011;54110;45.778;4.826;2022-09-20T15:18:00;3.00;;;0.80;;
67174;SDS011;54110;45.778;4.826;2022-09-20T15:20:27;1.67;;;0.77;;
67174;SDS011;54110;45.778;4.826;2022-09-20T15:22:53;3.15;;;0.80;;
67174;SDS011;54110;45.778;4.826;2022-09-20T15:25:19;1.38;;;0.75;;
67174;SDS011;54110;45.778;4.826;2022-09-20T15:27:45;1.75;;;0.80;;
67174;SDS011;54110;45.778;4.826;2022-09-20T15:30:13;5.10;;;0.82;;
67174;SDS011;54110;45.778;4.826;2022-09-20T15:32:39;3.65;;;1.05;;
67174;SDS011;54110;45.778;4.826;2022-09-20T15:35:06;1.73;;;0.70;;
67174;SDS011;54110;45.778;4.826;2022-09-20T15:37:33;3.15;;;0.80;;
67174;SDS011;54110;45.778;4.826;2022-09-20T15:39:59;2.80;;;0.85;;
67174;SDS011;54110;45.778;4.826;2022-09-20T15:42:25;6.60;;;1.35;;
67174;SDS011;54110;45.778;4.826;2022-09-20T15:44:51;5.28;;;0.90;;
67174;SDS011;54110;45.778;4.826;2022-09-20T15:47:16;5.15;;;1.02;;
67174;SDS011;54110;45.778;4.826;2022-09-20T15:49:42;2.75;;;0.90;;
67174;SDS011;54110;45.778;4.826;2022-09-20T15:52:08;6.38;;;1.15;;
67174;SDS011;54110;45.778;4.826;2022-09-20T15:54:35;2.72;;;0.90;;
67174;SDS011;54110;45.778;4.826;2022-09-20T15:57:00;2.22;;;1.00;;
67174;SDS011;54110;45.778;4.826;2022-09-20T15:59:26;4.78;;;0.93;;
67174;SDS011;54110;45.778;4.826;2022-09-20T16:01:52;2.67;;;0.93;;
67174;SDS011;54110;45.778;4.826;2022-09-20T16:04:18;4.30;;;0.90;;
67174;SDS011;54110;45.778;4.826;2022-09-20T16:06:45;3.90;;;0.82;;
67174;SDS011;54110;45.778;4.826;2022-09-20T16:09:11;4.40;;;1.10;;
67174;SDS011;54110;45.778;4.826;2022-09-20T16:11:39;2.35;;;1.00;;
67174;SDS011;54110;45.778;4.826;2022-09-20T16:14:05;2.03;;;0.95;;
67174;SDS011;54110;45.778;4.826;2022-09-20T16:16:31;2.78;;;1.02;;
67174;SDS011;54110;45.778;4.826;2022-09-20T16:18:58;3.35;;;1.05;;
67174;SDS011;54110;45.778;4.826;2022-09-20T16:21:24;6.03;;;1.05;;
67174;SDS011;54110;45.778;4.826;2022-09-20T16:23:50;5.63;;;1.02;;
67174;SDS011;54110;45.778;4.826;2022-09-20T16:26:18;2.38;;;1.00;;